Terminal Aerodrome Forecast
Issued by NWS Green Bay, WI

Home | Current Version | Previous Version | Graphics & Text | Print | Product List | Glossary On
Versions: 1 2 3 4 5 6 7 8 9 10 11 12 13 14 15 16 17 18 19 20 21 22 23
000
FTUS43 KGRB 210921 AAD
TAFGRB
TAF AMD
KGRB 210921Z 2109/2206 07008KT 4SM -SHRA BR OVC005
      TEMPO 2111/2113 2SM -TSRA BR OVC003CB
     FM211300 18006KT 6SM BR VCSH OVC004
     FM211500 23009G14KT P6SM BKN009 OVC020
     FM211900 23011G22KT P6SM BKN030=

USA.gov is the U.S. government's official web portal to all federal, state and local government web resources and services.